Time;durP1;ratioP1;P1;durP2;ratioP2;P2;SDS_P1;SDS_P2;PMS_P1;PMS_P2;Temp;Humidity;BMP_temperature;BMP_pressure;BME280_temperature;BME280_humidity;BME280_pressure;Samples;Min_cycle;Max_cycle;Signal;HPM_P1;HPM_P2
2022/07/28 00:00:29;;;;;;;5.90;1.70;;;;;;;16.13;61.90;101336.72;1681098;83;21143;-87
2022/07/28 00:02:58;;;;;;;4.15;1.50;;;;;;;16.11;61.96;101342.00;1648800;85;21127;-85
2022/07/28 00:05:24;;;;;;;3.52;1.35;;;;;;;16.11;62.08;101336.69;1672206;84;21080;-86
2022/07/28 00:07:51;;;;;;;6.90;1.70;;;;;;;16.11;62.12;101333.15;1671977;85;21084;-86
2022/07/28 00:10:18;;;;;;;4.30;1.47;;;;;;;16.10;62.18;101338.91;1672066;85;21088;-85
2022/07/28 00:12:45;;;;;;;4.78;1.70;;;;;;;16.11;62.34;101334.48;1672070;85;21123;-86
2022/07/28 00:15:11;;;;;;;4.50;1.85;;;;;;;16.11;62.33;101338.47;1672151;84;21743;-86
2022/07/28 00:17:42;;;;;;;4.05;1.57;;;;;;;16.11;62.43;101335.36;1671911;85;21074;-85
2022/07/28 00:20:10;;;;;;;8.10;1.60;;;;;;;16.11;62.49;101334.03;1664946;85;21170;-86
2022/07/28 00:22:42;;;;;;;3.75;1.72;;;;;;;16.11;62.53;101330.50;1672349;85;21072;-86
2022/07/28 00:25:09;;;;;;;4.33;1.42;;;;;;;16.11;62.59;101327.84;1666881;84;21101;-86
2022/07/28 00:27:36;;;;;;;4.87;1.55;;;;;;;16.10;62.64;101324.72;1661820;85;21707;-86
2022/07/28 00:30:05;;;;;;;4.25;1.90;;;;;;;16.08;62.71;101319.83;1644236;85;21125;-86
2022/07/28 00:32:32;;;;;;;3.00;1.42;;;;;;;16.06;62.82;101316.27;1655229;85;21528;-85
2022/07/28 00:34:59;;;;;;;6.05;1.90;;;;;;;16.04;62.90;101316.24;1682126;83;21070;-86
2022/07/28 00:37:26;;;;;;;4.03;1.62;;;;;;;16.05;62.99;101315.83;1700715;82;21570;-86
2022/07/28 00:39:53;;;;;;;5.92;1.72;;;;;;;16.03;63.10;101321.12;1671867;84;22831;-86
2022/07/28 00:42:20;;;;;;;5.70;1.72;;;;;;;16.02;63.21;101315.34;1666279;84;21067;-85
2022/07/28 00:44:47;;;;;;;5.42;1.50;;;;;;;16.02;63.31;101312.68;1657573;84;21106;-86
2022/07/28 00:47:20;;;;;;;6.53;1.52;;;;;;;16.03;63.40;101304.27;1638980;85;21072;-85
2022/07/28 00:49:49;;;;;;;6.85;1.60;;;;;;;16.02;63.49;101304.72;1693754;83;21078;-86
2022/07/28 00:52:19;;;;;;;5.00;1.85;;;;;;;16.02;63.53;101306.48;1686171;83;21920;-86
2022/07/28 00:54:45;;;;;;;5.80;2.10;;;;;;;16.00;63.66;101306.47;1682225;84;21122;-86
2022/07/28 00:57:12;;;;;;;5.20;1.50;;;;;;;16.01;63.76;101296.73;1656310;84;21121;-86
2022/07/28 00:59:39;;;;;;;6.00;1.60;;;;;;;16.00;63.84;101290.53;1659065;85;21109;-86
2022/07/28 01:02:06;;;;;;;7.08;1.92;;;;;;;15.99;63.89;101294.49;1653448;84;21107;-86
2022/07/28 01:04:33;;;;;;;3.47;1.45;;;;;;;15.98;63.98;101306.89;1655335;84;21720;-86
2022/07/28 01:07:28;;;;;;;8.00;1.60;;;;;;;15.94;64.04;101309.06;1708815;83;21102;-86
2022/07/28 01:10:12;;;;;;;4.45;1.65;;;;;;;15.92;64.19;101305.05;1661411;83;22016;-86
2022/07/28 01:12:57;;;;;;;11.90;2.27;;;;;;;15.90;64.30;101307.24;1672200;84;21163;-86
2022/07/28 01:15:50;;;;;;;5.28;1.47;;;;;;;15.91;64.44;101311.66;1694540;82;20988;-86
2022/07/28 01:18:23;;;;;;;6.55;1.90;;;;;;;15.89;64.50;101311.64;1631922;85;21704;-85
2022/07/28 01:21:08;;;;;;;6.70;1.80;;;;;;;15.87;64.63;101312.50;1672138;83;21591;-85
2022/07/28 01:23:57;;;;;;;10.85;1.77;;;;;;;15.89;64.67;101322.70;1655024;84;21559;-85
2022/07/28 01:26:35;;;;;;;3.52;1.77;;;;;;;15.90;64.74;101321.84;1669224;85;21651;-86
2022/07/28 01:29:13;;;;;;;6.12;1.82;;;;;;;15.91;64.81;101324.49;1701177;82;21025;-87
2022/07/28 01:31:42;;;;;;;5.12;1.67;;;;;;;15.93;64.89;101328.09;1697557;84;21732;-86
2022/07/28 01:34:17;;;;;;;5.47;1.70;;;;;;;15.97;64.94;101332.97;1691305;81;21652;-86
2022/07/28 01:37:00;;;;;;;9.43;2.02;;;;;;;15.97;64.96;101333.41;1647412;84;21054;-86
2022/07/28 01:39:31;;;;;;;6.47;1.85;;;;;;;16.00;65.01;101342.31;1649097;85;21093;-86
2022/07/28 01:41:58;;;;;;;5.78;1.65;;;;;;;15.99;65.02;101331.25;1659504;84;21346;-87
2022/07/28 01:44:24;;;;;;;4.55;1.62;;;;;;;15.97;65.04;101329.43;1659617;85;22534;-86
2022/07/28 01:46:52;;;;;;;6.42;2.15;;;;;;;15.99;65.17;101331.66;1659736;84;21092;-86
2022/07/28 01:49:20;;;;;;;6.30;1.95;;;;;;;15.99;65.19;101327.27;1674543;83;21072;-86
2022/07/28 01:51:47;;;;;;;6.70;1.92;;;;;;;16.01;65.25;101328.59;1676435;85;21147;-87
2022/07/28 01:54:14;;;;;;;6.15;1.77;;;;;;;16.01;65.29;101325.52;1663706;83;21077;-86
2022/07/28 01:56:41;;;;;;;4.33;1.90;;;;;;;16.01;65.33;101324.60;1679321;83;23138;-86
2022/07/28 01:59:08;;;;;;;6.50;2.20;;;;;;;16.03;65.39;101329.49;1664525;84;21749;-85
2022/07/28 02:01:36;;;;;;;6.10;1.92;;;;;;;16.04;65.44;101329.52;1703219;82;21591;-86
2022/07/28 02:04:04;;;;;;;4.45;1.52;;;;;;;16.02;65.49;101325.95;1668414;84;21061;-86
2022/07/28 02:06:34;;;;;;;3.65;1.52;;;;;;;16.02;65.55;101327.28;1700372;83;21094;-86
2022/07/28 02:09:04;;;;;;;8.30;1.98;;;;;;;16.01;65.59;101333.48;1666067;84;22580;-86
2022/07/28 02:11:40;;;;;;;6.97;1.75;;;;;;;16.03;65.64;101333.06;1691624;83;21154;-86
2022/07/28 02:14:15;;;;;;;6.55;2.22;;;;;;;16.02;65.66;101334.37;1651088;85;21862;-86
2022/07/28 02:16:49;;;;;;;5.60;1.70;;;;;;;16.02;65.71;101329.94;1670729;83;22138;-86
2022/07/28 02:19:19;;;;;;;6.35;1.82;;;;;;;16.04;65.72;101329.97;1643091;84;22336;-86
2022/07/28 02:21:48;;;;;;;3.52;1.50;;;;;;;16.02;65.73;101331.72;1637713;85;21894;-86
2022/07/28 02:24:25;;;;;;;7.80;1.55;;;;;;;16.00;65.85;101334.34;1648778;85;21864;-86
2022/07/28 02:26:54;;;;;;;4.55;1.32;;;;;;;16.02;65.88;101327.73;1646870;85;21066;-86
2022/07/28 02:29:23;;;;;;;4.95;1.42;;;;;;;16.02;65.91;101331.72;1643861;85;22118;-86
2022/07/28 02:31:54;;;;;;;4.35;1.52;;;;;;;16.03;65.93;101326.84;1647879;85;21591;-86
2022/07/28 02:34:22;;;;;;;3.98;1.37;;;;;;;16.02;65.97;101325.08;1628646;86;21790;-86
2022/07/28 02:36:54;;;;;;;4.58;1.70;;;;;;;16.03;65.99;101327.76;1685396;83;21066;-86
2022/07/28 02:39:28;;;;;;;5.00;1.55;;;;;;;16.02;66.00;101327.28;1684040;83;21082;-87
2022/07/28 02:42:08;;;;;;;7.50;1.72;;;;;;;16.01;66.10;101329.92;1687289;83;21664;-87
2022/07/28 02:44:40;;;;;;;4.65;1.30;;;;;;;16.03;66.12;101333.48;1687569;83;21018;-86
2022/07/28 02:47:09;;;;;;;4.22;1.70;;;;;;;16.04;66.19;101337.93;1688868;83;21761;-86
2022/07/28 02:49:36;;;;;;;3.60;1.32;;;;;;;16.04;66.19;101340.14;1708669;82;21014;-86
2022/07/28 02:52:06;;;;;;;2.87;1.12;;;;;;;16.04;66.23;101344.56;1690875;83;20999;-86
2022/07/28 02:54:33;;;;;;;3.30;1.17;;;;;;;16.04;66.27;101345.90;1693290;83;21040;-86
2022/07/28 02:57:00;;;;;;;4.58;1.55;;;;;;;16.04;66.37;101343.24;1708754;83;21496;-87
2022/07/28 02:59:27;;;;;;;2.67;1.17;;;;;;;16.06;66.43;101347.69;1684649;83;21773;-87
2022/07/28 03:01:54;;;;;;;4.25;1.27;;;;;;;16.06;66.50;101341.49;1668663;84;20989;-87
2022/07/28 03:05:06;;;;;;;4.00;1.12;;;;;;;16.07;66.53;101342.84;1649785;85;21060;-87
2022/07/28 03:06:50;;;;;;;3.85;1.10;;;;;;;16.09;66.60;101341.54;1641915;84;21307;-87
2022/07/28 03:09:18;;;;;;;2.37;1.10;;;;;;;16.09;66.63;101346.85;1668265;85;21075;-87
2022/07/28 03:11:52;;;;;;;4.40;1.40;;;;;;;16.10;66.68;101349.95;1670709;85;21755;-86
2022/07/28 03:14:18;;;;;;;;;;;;;;;16.13;66.73;101352.65;1674501;84;21016;-87
2022/07/28 03:16:48;;;;;;;6.58;1.75;;;;;;;16.17;66.88;101357.56;1670302;84;20360;-87
2022/07/28 03:19:15;;;;;;;4.22;1.37;;;;;;;16.18;66.82;101357.59;1678025;83;21091;-87
2022/07/28 03:21:48;;;;;;;4.15;1.42;;;;;;;16.23;66.92;101349.66;1675596;83;21158;-87
2022/07/28 03:24:13;;;;;;;4.10;1.22;;;;;;;16.28;66.95;101355.47;1683624;83;22474;-87
2022/07/28 03:26:46;;;;;;;5.62;1.57;;;;;;;16.31;66.97;101351.95;1673691;83;21937;-87
2022/07/28 03:29:13;;;;;;;2.20;1.15;;;;;;;16.34;66.97;101350.66;1662051;84;21354;-87
2022/07/28 03:32:49;;;;;;;7.05;2.58;;;;;;;16.40;66.98;101344.53;1683698;84;21132;-86
2022/07/28 03:35:19;;;;;;;5.37;1.40;;;;;;;16.44;66.99;101343.67;1598945;88;21041;-86
2022/07/28 03:38:14;;;;;;;3.00;1.27;;;;;;;16.52;67.01;101350.86;1656915;85;22646;-86
2022/07/28 03:40:41;;;;;;;4.50;1.30;;;;;;;16.59;67.01;101342.94;1667076;85;21028;-87
2022/07/28 03:43:10;;;;;;;2.45;1.10;;;;;;;16.65;66.90;101355.87;1669001;85;21027;-86
2022/07/28 03:45:37;;;;;;;3.10;1.50;;;;;;;16.66;66.89;101349.66;1660599;84;21386;-86
2022/07/28 03:48:05;;;;;;;4.87;1.27;;;;;;;16.75;66.95;101351.97;1679801;84;21595;-86
2022/07/28 03:50:32;;;;;;;4.00;1.55;;;;;;;16.85;66.99;101349.42;1680264;84;21779;-87
2022/07/28 03:52:59;;;;;;;3.72;1.50;;;;;;;17.45;68.33;101351.65;1680185;84;21201;-86
2022/07/28 03:55:26;;;;;;;2.77;1.20;;;;;;;19.33;69.13;101345.48;1666956;84;21574;-88
2022/07/28 03:57:52;;;;;;;3.02;1.25;;;;;;;21.03;67.13;101335.75;1680046;84;21517;-87
2022/07/28 04:00:19;;;;;;;4.30;1.52;;;;;;;22.43;64.81;101337.28;1648823;85;21066;-87
2022/07/28 04:02:46;;;;;;;4.15;1.45;;;;;;;23.90;63.23;101339.69;1678001;84;21699;-88
2022/07/28 04:05:16;;;;;;;3.17;1.10;;;;;;;24.45;59.72;101339.80;1676310;84;21589;-87
2022/07/28 04:07:45;;;;;;;7.40;1.87;;;;;;;24.28;59.00;101342.88;1675171;84;21330;-88
2022/07/28 04:10:18;;;;;;;4.50;1.80;;;;;;;25.60;58.71;101340.05;1675739;84;21385;-88
2022/07/28 04:12:50;;;;;;;8.90;1.70;;;;;;;27.01;57.42;101347.00;1679300;84;21117;-87
2022/07/28 04:15:18;;;;;;;5.17;1.62;;;;;;;28.34;54.78;101351.64;1678000;84;21768;-87
2022/07/28 04:17:47;;;;;;;5.08;1.55;;;;;;;27.83;51.72;101355.80;1680101;84;21169;-87
2022/07/28 04:20:15;;;;;;;4.85;1.60;;;;;;;26.54;50.63;101351.66;1678183;85;21434;-89
2022/07/28 04:22:42;;;;;;;5.78;1.77;;;;;;;25.22;50.77;101350.03;1680095;84;21087;-87
2022/07/28 04:25:09;;;;;;;4.08;2.00;;;;;;;24.11;50.91;101354.47;1662775;84;21105;-87
2022/07/28 04:27:38;;;;;;;7.50;1.52;;;;;;;23.15;51.45;101355.42;1679539;84;23181;-87
2022/07/28 04:30:07;;;;;;;7.35;1.80;;;;;;;22.46;52.41;101358.25;1689083;83;21066;-87
2022/07/28 04:32:33;;;;;;;7.25;1.57;;;;;;;21.88;52.80;101355.86;1677625;84;21105;-87
2022/07/28 04:35:04;;;;;;;5.50;1.82;;;;;;;21.39;53.45;101360.86;1679802;84;22205;-86
2022/07/28 04:37:31;;;;;;;5.65;2.50;;;;;;;20.94;54.11;101367.48;1677799;84;21103;-87
2022/07/28 04:40:00;;;;;;;6.85;1.92;;;;;;;20.68;54.65;101365.00;1681120;84;21977;-87
2022/07/28 04:42:26;;;;;;;4.95;2.22;;;;;;;20.20;55.59;101364.39;1678846;85;21837;-88
2022/07/28 04:45:03;;;;;;;7.03;2.02;;;;;;;20.20;55.59;101364.39;1677667;84;21169;-90
2022/07/28 04:47:29;;;;;;;6.67;2.20;;;;;;;20.08;55.99;101365.31;1670467;85;21721;-90
2022/07/28 04:50:02;;;;;;;3.87;1.45;;;;;;;19.98;56.39;101367.14;1651472;85;21684;-90
2022/07/28 04:52:32;;;;;;;5.60;1.50;;;;;;;19.91;56.63;101371.19;1677035;83;21791;-87
2022/07/28 04:54:59;;;;;;;9.83;2.17;;;;;;;19.86;56.87;101373.89;1681759;84;21088;-87
2022/07/28 04:57:27;;;;;;;5.40;1.90;;;;;;;19.72;57.02;101378.34;1677283;84;21567;-87
2022/07/28 04:59:54;;;;;;;8.43;1.90;;;;;;;19.56;57.27;101374.38;1652858;85;21099;-87
2022/07/28 05:02:21;;;;;;;6.12;1.70;;;;;;;19.41;57.52;101373.95;1679090;85;21127;-88
2022/07/28 05:04:47;;;;;;;7.83;2.17;;;;;;;19.31;57.73;101385.98;1679735;85;22544;-87
2022/07/28 05:07:14;;;;;;;5.75;1.90;;;;;;;19.20;58.05;101383.30;1679888;85;21594;-87
2022/07/28 05:09:45;;;;;;;6.22;1.87;;;;;;;19.10;58.24;101383.76;1681954;84;21074;-90
2022/07/28 05:12:09;;;;;;;8.43;2.05;;;;;;;19.06;58.57;101389.11;1679505;82;21070;-91
2022/07/28 05:14:40;;;;;;;6.87;1.70;;;;;;;19.01;58.72;101406.44;1678893;84;21573;-84
2022/07/28 05:17:08;;;;;;;8.75;1.77;;;;;;;18.94;58.89;101407.31;1684745;83;21427;-84
2022/07/28 05:19:48;;;;;;;6.05;1.62;;;;;;;18.88;59.11;101409.98;1680609;83;21087;-91
2022/07/28 05:22:16;;;;;;;9.33;2.62;;;;;;;18.83;59.36;101408.66;1681945;84;21119;-88
2022/07/28 05:24:43;;;;;;;7.00;1.90;;;;;;;18.81;59.58;101411.31;1674755;84;21142;-88
2022/07/28 05:27:13;;;;;;;8.13;2.27;;;;;;;18.79;59.76;101416.18;1681837;83;21142;-89
2022/07/28 05:29:43;;;;;;;8.88;1.90;;;;;;;18.81;59.94;101413.10;1671090;84;21925;-88
2022/07/28 05:32:11;;;;;;;7.25;2.02;;;;;;;18.89;60.06;101418.45;1680385;84;21031;-88
2022/07/28 05:34:37;;;;;;;7.45;2.00;;;;;;;18.92;60.05;101415.34;1682300;85;21099;-89
2022/07/28 05:37:04;;;;;;;7.17;1.70;;;;;;;18.96;60.10;101422.45;1682169;85;22043;-89
2022/07/28 05:39:31;;;;;;;7.53;2.08;;;;;;;19.06;60.27;101422.01;1679712;84;21169;-89
2022/07/28 05:41:59;;;;;;;6.25;2.10;;;;;;;19.12;60.16;101423.34;1682514;84;22520;-88
2022/07/28 05:44:29;;;;;;;6.35;1.95;;;;;;;19.18;60.16;101431.38;1679755;84;21106;-89
2022/07/28 05:46:58;;;;;;;11.80;3.02;;;;;;;19.29;60.25;101430.47;1685099;84;21077;-88
2022/07/28 05:49:25;;;;;;;6.35;2.27;;;;;;;19.34;60.03;101435.37;1673632;84;21089;-88
2022/07/28 05:51:52;;;;;;;7.08;2.35;;;;;;;19.41;60.06;101434.48;1678678;84;21110;-88
2022/07/28 05:54:18;;;;;;;8.45;2.15;;;;;;;19.44;59.93;101441.13;1690408;83;23060;-89
2022/07/28 05:56:47;;;;;;;10.85;2.45;;;;;;;19.55;60.01;101447.36;1690840;83;20998;-89
2022/07/28 05:59:13;;;;;;;4.28;1.60;;;;;;;19.64;59.88;101442.91;1670357;84;21105;-89
2022/07/28 06:01:40;;;;;;;8.28;2.00;;;;;;;19.70;59.69;101442.44;1667202;85;21114;-88
2022/07/28 06:04:09;;;;;;;6.28;2.05;;;;;;;19.73;59.59;101443.81;1696103;83;21125;-89
2022/07/28 06:06:36;;;;;;;7.30;2.62;;;;;;;19.76;59.55;101450.50;1676715;84;21764;-89
2022/07/28 06:09:02;;;;;;;9.43;3.00;;;;;;;19.82;59.54;101448.27;1678665;85;21140;-89
2022/07/28 06:11:29;;;;;;;6.30;1.90;;;;;;;19.85;59.33;101450.91;1681228;84;21577;-89
2022/07/28 06:13:56;;;;;;;9.48;2.47;;;;;;;19.91;59.36;101453.55;1678568;84;21056;-89
2022/07/28 06:16:22;;;;;;;10.88;2.20;;;;;;;20.02;59.26;101456.66;1677504;84;21127;-90
2022/07/28 06:18:54;;;;;;;6.33;2.10;;;;;;;20.10;59.12;101455.77;1678685;84;21164;-89
2022/07/28 06:21:23;;;;;;;5.95;1.80;;;;;;;20.17;58.91;101456.16;1682449;84;21123;-89
2022/07/28 06:23:49;;;;;;;5.87;1.85;;;;;;;20.28;58.90;101460.59;1678691;83;21101;-90
2022/07/28 06:26:20;;;;;;;9.38;2.75;;;;;;;20.43;58.38;101460.98;1697713;83;21352;-90
2022/07/28 06:28:47;;;;;;;9.80;3.08;;;;;;;20.45;58.16;101463.20;1692894;84;20975;-90
2022/07/28 06:31:13;;;;;;;7.62;2.42;;;;;;;20.45;58.16;101463.20;1688259;83;22392;-90
2022/07/28 06:33:40;;;;;;;4.60;1.92;;;;;;;20.52;58.37;101467.16;1673460;84;21129;-90
2022/07/28 06:36:07;;;;;;;6.00;2.77;;;;;;;20.64;58.09;101470.25;1687885;83;21612;-90
2022/07/28 06:38:34;;;;;;;8.03;3.25;;;;;;;20.68;57.91;101470.67;1668429;85;21068;-90
2022/07/28 06:41:00;;;;;;;11.20;3.05;;;;;;;20.65;57.58;101456.00;1666238;85;21135;-89
2022/07/28 06:43:27;;;;;;;7.50;2.30;;;;;;;20.64;57.47;101447.98;1660479;84;21744;-89
2022/07/28 06:45:54;;;;;;;10.25;6.37;;;;;;;20.64;57.47;101430.59;1666615;84;21087;-89
2022/07/28 06:48:21;;;;;;;5.83;3.22;;;;;;;20.74;57.30;101449.26;1685110;83;21133;-90
2022/07/28 06:50:48;;;;;;;7.17;2.80;;;;;;;20.99;57.39;101472.30;1664412;84;21210;-90
2022/07/28 06:53:16;;;;;;;8.53;3.00;;;;;;;21.00;57.20;101458.88;1661914;84;21091;-88
2022/07/28 06:55:43;;;;;;;8.03;2.60;;;;;;;21.14;56.89;101466.84;1665939;84;21755;-89
2022/07/28 06:58:09;;;;;;;9.78;2.70;;;;;;;21.18;56.85;101471.27;1671510;85;21556;-89
2022/07/28 07:00:36;;;;;;;8.03;3.60;;;;;;;21.29;56.60;101475.20;1671563;84;21123;-90
2022/07/28 07:03:03;;;;;;;9.63;2.35;;;;;;;21.34;56.10;101474.27;1665412;84;21381;-89
2022/07/28 07:05:30;;;;;;;9.75;3.40;;;;;;;21.36;55.95;101479.62;1665122;85;22032;-89
2022/07/28 07:07:57;;;;;;;7.42;2.10;;;;;;;21.46;56.07;101479.12;1682780;83;22590;-89
2022/07/28 07:10:32;;;;;;;7.55;2.45;;;;;;;21.60;55.85;101480.33;1662880;84;21602;-89
2022/07/28 07:12:58;;;;;;;9.10;1.87;;;;;;;21.70;55.80;101486.94;1659527;84;21114;-89
2022/07/28 07:15:25;;;;;;;7.10;2.55;;;;;;;21.88;55.62;101477.80;1670846;85;21098;-89
2022/07/28 07:17:53;;;;;;;7.80;2.12;;;;;;;21.96;55.21;101476.84;1672268;85;21174;-89
2022/07/28 07:20:20;;;;;;;7.20;2.08;;;;;;;22.06;54.94;101478.54;1671285;84;22001;-88
2022/07/28 07:22:46;;;;;;;10.58;2.17;;;;;;;22.11;54.58;101475.33;1671590;84;22282;-89
2022/07/28 07:25:16;;;;;;;6.50;2.52;;;;;;;22.20;54.43;101483.73;1668911;84;21151;-89
2022/07/28 07:27:48;;;;;;;7.20;3.35;;;;;;;22.26;53.98;101486.37;1671808;84;21104;-89
2022/07/28 07:30:14;;;;;;;9.05;2.20;;;;;;;22.27;53.81;101490.84;1671678;85;21094;-89
2022/07/28 07:32:41;;;;;;;6.78;2.05;;;;;;;22.36;53.60;101486.71;1671981;85;23194;-89
2022/07/28 07:35:08;;;;;;;7.53;1.92;;;;;;;22.48;53.41;101479.83;1668439;85;21779;-89
2022/07/28 07:37:38;;;;;;;4.55;1.55;;;;;;;22.56;53.26;101490.50;1670391;85;21395;-89
2022/07/28 07:40:14;;;;;;;7.33;2.40;;;;;;;22.81;53.28;101492.84;1908552;74;23714;-83
2022/07/28 07:42:41;;;;;;;5.28;1.72;;;;;;;22.93;52.86;101497.14;1851892;77;21006;-92
2022/07/28 07:45:08;;;;;;;8.15;2.52;;;;;;;23.02;52.74;101497.89;1862000;75;22517;-85
2022/07/28 07:47:35;;;;;;;6.92;1.95;;;;;;;23.13;52.04;101500.92;1846239;77;21559;-85
2022/07/28 07:50:02;;;;;;;5.05;1.80;;;;;;;23.04;51.67;101507.30;1861757;75;21058;-84
2022/07/28 07:52:29;;;;;;;5.55;1.87;;;;;;;22.97;51.45;101484.98;1849320;75;21022;-84
2022/07/28 07:54:57;;;;;;;5.15;1.70;;;;;;;23.05;51.11;101509.09;1856155;75;21463;-85
2022/07/28 07:57:24;;;;;;;3.95;1.50;;;;;;;23.04;50.98;101509.52;1848866;75;21720;-84
2022/07/28 07:59:51;;;;;;;4.47;1.62;;;;;;;23.02;50.88;101507.28;1849931;77;21038;-92
2022/07/28 08:02:18;;;;;;;3.60;1.27;;;;;;;23.03;50.64;101509.11;1840610;75;21026;-93
2022/07/28 08:04:46;;;;;;;4.35;1.30;;;;;;;22.96;50.55;101513.22;1838662;77;21315;-90
2022/07/28 08:07:12;;;;;;;5.72;1.40;;;;;;;22.94;50.61;101515.01;1853450;77;21115;-93
2022/07/28 08:09:39;;;;;;;2.02;1.02;;;;;;;22.99;50.68;101510.47;1859818;75;21733;-84
2022/07/28 08:12:07;;;;;;;4.17;1.25;;;;;;;23.03;50.58;101515.83;1850020;77;21014;-84
2022/07/28 08:14:34;;;;;;;4.55;1.62;;;;;;;23.13;50.52;101513.88;1855926;77;21005;-92
2022/07/28 08:17:08;;;;;;;5.42;1.85;;;;;;;23.31;50.52;101517.19;1848870;77;21086;-91
2022/07/28 08:19:34;;;;;;;9.18;1.40;;;;;;;23.40;50.15;101523.77;1847822;75;21090;-85
2022/07/28 08:22:01;;;;;;;6.35;1.07;;;;;;;23.44;49.72;101530.42;1849073;75;21745;-92
2022/07/28 08:24:28;;;;;;;6.17;1.62;;;;;;;23.36;49.27;101532.33;1846848;76;21093;-85
2022/07/28 08:26:55;;;;;;;4.87;1.65;;;;;;;23.25;49.56;101535.16;1858510;75;21018;-84
2022/07/28 08:29:22;;;;;;;6.80;3.45;;;;;;;23.32;49.73;101530.60;1845748;77;21006;-84
2022/07/28 08:31:49;;;;;;;3.70;2.05;;;;;;;23.36;49.28;101536.81;1851075;75;21128;-84
2022/07/28 08:34:16;;;;;;;5.85;2.37;;;;;;;23.36;49.28;101537.70;1834932;77;21846;-91
2022/07/28 08:36:42;;;;;;;4.25;2.20;;;;;;;23.40;49.39;101541.22;1854477;77;21009;-85
2022/07/28 08:39:09;;;;;;;4.45;1.60;;;;;;;23.28;49.08;101535.59;1846923;77;21199;-85
2022/07/28 08:41:47;;;;;;;6.72;1.57;;;;;;;23.17;49.23;101542.46;1850666;77;20980;-91
2022/07/28 08:44:15;;;;;;;4.85;1.87;;;;;;;23.05;49.39;101541.31;1847967;76;21003;-91
2022/07/28 08:46:42;;;;;;;4.80;2.30;;;;;;;23.03;49.67;101537.70;1842721;75;21741;-84
2022/07/28 08:49:17;;;;;;;5.45;1.67;;;;;;;23.02;49.24;101538.16;1832861;75;21322;-92
2022/07/28 08:51:44;;;;;;;10.90;5.75;;;;;;;22.95;49.42;101543.18;1837971;75;21007;-90
2022/07/28 08:54:18;;;;;;;7.65;2.83;;;;;;;23.02;49.43;101539.97;1847166;75;21580;-90
2022/07/28 08:56:45;;;;;;;7.25;3.00;;;;;;;23.12;49.52;101552.84;1834759;75;21057;-90
2022/07/28 08:59:12;;;;;;;5.42;1.45;;;;;;;23.20;49.07;101542.43;1843638;75;21727;-92
2022/07/28 09:01:39;;;;;;;6.47;1.90;;;;;;;23.32;49.23;101546.72;1858857;75;21515;-84
2022/07/28 09:04:07;;;;;;;4.97;1.40;;;;;;;23.51;49.00;101554.03;1849437;75;21043;-84
2022/07/28 09:06:40;;;;;;;7.55;2.30;;;;;;;23.64;48.92;101550.70;1840261;77;21473;-91
2022/07/28 09:09:03;;;;;;;3.92;2.15;;;;;;;23.86;48.55;101555.30;1838322;75;21279;-85
2022/07/28 09:11:30;;;;;;;6.10;1.80;;;;;;;23.94;48.07;101560.53;1837291;76;21749;-84
2022/07/28 09:13:56;;;;;;;6.95;3.55;;;;;;;23.85;47.55;101555.73;1847574;77;21125;-90
2022/07/28 09:16:23;;;;;;;7.70;2.50;;;;;;;23.66;47.61;101555.59;1853689;75;21050;-91
2022/07/28 09:18:50;;;;;;;5.08;2.37;;;;;;;23.61;47.61;101552.08;1849257;75;21674;-91
2022/07/28 09:21:17;;;;;;;6.45;1.70;;;;;;;23.61;47.38;101554.34;1843620;77;21025;-84
2022/07/28 09:23:46;;;;;;;8.08;2.25;;;;;;;23.69;47.62;101552.86;1836796;75;22575;-91
2022/07/28 09:26:13;;;;;;;2.12;1.25;;;;;;;23.85;47.69;101558.87;1850172;75;21067;-91
2022/07/28 09:28:52;;;;;;;4.55;2.17;;;;;;;24.18;47.67;101549.79;1843574;76;21075;-85
2022/07/28 09:31:20;;;;;;;5.90;1.65;;;;;;;24.42;47.21;101556.50;1830969;75;21030;-84
2022/07/28 09:34:00;;;;;;;5.95;1.50;;;;;;;24.38;46.25;101564.19;1836876;77;21039;-84
2022/07/28 09:36:38;;;;;;;5.08;1.67;;;;;;;24.22;46.49;101559.56;1841180;75;21820;-92
2022/07/28 09:39:05;;;;;;;3.37;1.10;;;;;;;24.08;46.14;101568.34;1837902;75;21038;-91
2022/07/28 09:41:51;;;;;;;4.33;1.37;;;;;;;23.91;46.42;101568.64;1845678;75;21537;-84
2022/07/28 09:44:18;;;;;;;3.42;1.00;;;;;;;23.85;46.50;101559.76;1807373;76;21680;-85
2022/07/28 09:46:45;;;;;;;10.55;2.52;;;;;;;24.02;46.69;101562.15;1851884;75;21775;-91
2022/07/28 09:49:12;;;;;;;4.25;1.30;;;;;;;24.11;46.29;101563.80;1841511;75;21743;-84
2022/07/28 09:51:39;;;;;;;9.10;3.87;;;;;;;24.13;45.98;101564.66;1849263;75;22092;-84
2022/07/28 09:54:13;;;;;;;4.15;2.25;;;;;;;24.18;46.23;101560.55;1845591;77;21023;-91
2022/07/28 09:56:42;;;;;;;6.95;2.75;;;;;;;24.35;46.17;101560.23;1832761;77;20991;-84
2022/07/28 09:59:10;;;;;;;3.98;2.30;;;;;;;24.60;46.03;101572.76;1838354;77;21015;-84
2022/07/28 10:01:58;;;;;;;7.17;2.70;;;;;;;24.61;44.92;101570.51;1836395;75;21736;-90
2022/07/28 10:04:32;;;;;;;3.90;1.40;;;;;;;24.40;45.14;101568.64;1838324;77;20988;-92
2022/07/28 10:07:12;;;;;;;4.37;2.05;;;;;;;24.27;45.10;101576.52;1844131;75;21548;-84
2022/07/28 10:09:39;;;;;;;3.83;1.35;;;;;;;24.05;44.97;101572.86;1846720;75;21089;-84
2022/07/28 10:12:23;;;;;;;2.95;1.32;;;;;;;24.00;45.30;101580.12;1838132;75;21015;-92
2022/07/28 10:14:52;;;;;;;4.00;1.62;;;;;;;24.00;45.44;101577.42;1843786;75;21684;-84
2022/07/28 10:17:31;;;;;;;4.72;1.90;;;;;;;24.19;45.46;101589.20;1834579;77;21608;-92
2022/07/28 10:20:00;;;;;;;3.40;1.12;;;;;;;24.29;45.48;101587.22;1841874;75;21015;-84
2022/07/28 10:22:32;;;;;;;5.83;1.40;;;;;;;24.37;45.30;101586.64;1831083;77;21538;-84
2022/07/28 10:25:06;;;;;;;3.92;1.20;;;;;;;24.52;45.20;101589.06;1839522;75;21058;-85
2022/07/28 10:27:33;;;;;;;4.35;1.20;;;;;;;24.57;44.87;101588.52;1833279;77;21763;-91
2022/07/28 10:30:03;;;;;;;4.28;1.10;;;;;;;24.68;44.90;101584.25;1839396;77;21007;-90
2022/07/28 10:32:41;;;;;;;2.65;0.98;;;;;;;24.82;44.86;101588.02;1846942;76;21075;-92
2022/07/28 10:35:14;;;;;;;2.45;1.10;;;;;;;24.93;44.79;101586.45;1840244;77;21061;-91
2022/07/28 10:38:03;;;;;;;3.12;1.40;;;;;;;25.08;44.65;101584.77;1835271;75;21070;-83
2022/07/28 10:40:35;;;;;;;4.12;1.05;;;;;;;25.13;44.01;101588.25;1833487;77;21746;-91
2022/07/28 10:43:02;;;;;;;3.12;1.15;;;;;;;25.25;44.05;101591.16;1852786;76;21060;-91
2022/07/28 10:45:29;;;;;;;3.27;1.35;;;;;;;25.47;43.44;101592.89;1829826;77;21026;-85
2022/07/28 10:47:57;;;;;;;4.72;1.40;;;;;;;25.50;43.29;101594.62;1839525;77;21568;-91
2022/07/28 10:50:23;;;;;;;4.22;1.70;;;;;;;25.63;43.37;101594.75;1840670;77;21371;-84
2022/07/28 10:52:51;;;;;;;5.58;1.20;;;;;;;25.78;43.21;101602.45;1842463;77;22575;-91
2022/07/28 10:55:40;;;;;;;4.50;1.10;;;;;;;25.90;42.98;101603.06;1814651;78;21122;-93
2022/07/28 10:58:27;;;;;;;3.67;1.17;;;;;;;26.02;42.56;101605.97;1833513;77;21055;-93
2022/07/28 11:00:54;;;;;;;2.02;0.95;;;;;;;25.84;42.00;101597.37;1840689;76;21039;-85
2022/07/28 11:03:42;;;;;;;4.33;1.47;;;;;;;25.78;41.98;101603.80;1835386;77;21074;-92
2022/07/28 11:06:32;;;;;;;2.87;0.78;;;;;;;25.74;42.00;101604.80;1843027;77;21903;-84
2022/07/28 11:09:18;;;;;;;6.12;2.10;;;;;;;25.97;42.29;101603.37;1830504;77;21026;-92
2022/07/28 11:11:54;;;;;;;1.85;0.93;;;;;;;26.16;41.98;101605.12;1844152;75;21038;-85
2022/07/28 11:14:32;;;;;;;4.42;1.20;;;;;;;26.13;41.69;101603.41;1834907;77;21057;-92
2022/07/28 11:17:09;;;;;;;6.12;1.65;;;;;;;25.98;41.83;101606.04;1848211;75;21062;-92
2022/07/28 11:19:50;;;;;;;3.50;1.52;;;;;;;25.93;41.87;101608.43;1841295;75;21779;-93
2022/07/28 11:22:21;;;;;;;4.75;1.22;;;;;;;25.97;41.94;101609.65;1810049;79;21132;-90
2022/07/28 11:25:03;;;;;;;3.70;1.25;;;;;;;26.03;41.97;101612.65;1849701;76;21091;-91
2022/07/28 11:27:45;;;;;;;6.03;1.37;;;;;;;26.13;42.05;101615.55;1819650;77;21010;-92
2022/07/28 11:30:35;;;;;;;5.92;1.02;;;;;;;26.23;41.44;101628.80;1836974;75;21074;-92
2022/07/28 11:33:12;;;;;;;2.72;1.20;;;;;;;26.03;40.95;101621.22;1858084;75;21751;-91
2022/07/28 11:35:43;;;;;;;4.85;1.02;;;;;;;25.97;41.06;101611.47;1834058;76;21035;-83
2022/07/28 11:38:12;;;;;;;1.65;0.82;;;;;;;26.00;41.04;101616.80;1837343;75;21741;-82